Pagina principale
METAR-TAF:

METAR-TAF

Aeroporti :

La Chaux-de-Fonds, Svizzera

latitudine: 47-05-03N, longitudine: 006-47-37E, altezza: 1027 m

Osservazione

Il bollettino è stato emesso 17 minuti fa, alle 13:20 UTC
Vento 1 kt da direzioni variabili
Temperature 8°C
Umidità 87%
Pressione 1019 hPa
Visibilità 10 km o più
Poco nuvoloso ad un'altezza di 1200 ft
Nuvoloso ad un'altezza di 5000 ft

METAR: LSGC 191320Z VRB01KT 9999 FEW012 BKN050 08/06 Q1019 RERA

Ora: 15:37 (13:37 UTC)

Previsione

Il bollettino è stato emesso 2 ore e 12 minuti fa, alle 11:25 UTC
Previsione valida dal 19 alle 12 UTC al 19 alle 21 UTC
Vento 3 kt da direzioni variabili
Visibilità 10 km o più
Nubi sparse ad un'altezza di 1300 ft
Nuvoloso ad un'altezza di 2300 ft
Temporaneamente
dal 19 alle 12 UTC al 19 alle 21 UTC
Nuvoloso ad un'altezza di 1200 ft
rovesci di pioggia

TAF: LSGC 191125Z 1912/1921 VRB03KT 9999 SCT013 BKN023 TEMPO 1912/1921 SHRA BKN012

Osservazioni e previsioni meteorologiche di più di 4000 aeroporti (messaggi METAR e TAF).

Le stazioni disponibili sono rappresentate dai dischi gialli e rossi sulla carta.

Puntare il mouse per vedere il nome della stazione.

Clicca sopra per visualizzare le osservazioni e previsioni meteorologiche.

Per cambiare la mappa : fare clic sui pulsanti verdi con una croce nera per ingrandire, il pulsante verde con un trattino per diminuire, o sulla freccia verde per le mappe adiacenti.


METAR-TAF: